createdAt,value
2019-01-23T00:03:10.193Z,-3.90
2019-01-23T00:08:14.121Z,-4.00
2019-01-23T00:13:17.813Z,-4.00
2019-01-23T00:18:21.484Z,-4.00
2019-01-23T00:23:25.149Z,-4.00
2019-01-23T00:28:28.800Z,-4.10
2019-01-23T00:33:32.472Z,-4.10
2019-01-23T00:38:36.148Z,-4.10
2019-01-23T00:43:39.810Z,-4.10
2019-01-23T00:48:43.475Z,-4.10
2019-01-23T00:53:47.151Z,-4.10
2019-01-23T00:58:50.820Z,-4.10
2019-01-23T01:03:54.909Z,-4.10
2019-01-23T01:08:58.641Z,-4.00
2019-01-23T01:14:02.321Z,-4.00
2019-01-23T01:19:06.116Z,-4.00
2019-01-23T01:24:10.055Z,-4.00
2019-01-23T01:29:13.710Z,-3.90
2019-01-23T01:34:17.445Z,-3.90
2019-01-23T01:39:21.113Z,-3.90
2019-01-23T01:44:24.788Z,-3.90
2019-01-23T01:49:28.453Z,-3.90
2019-01-23T01:54:32.126Z,-3.90
2019-01-23T01:59:35.781Z,-3.90
2019-01-23T02:04:39.448Z,-3.90
2019-01-23T02:09:45.542Z,-3.90
2019-01-23T02:14:48.499Z,-3.90
2019-01-23T02:19:52.157Z,-3.80
2019-01-23T02:24:56.107Z,-3.80
2019-01-23T02:29:59.765Z,-3.80
2019-01-23T02:35:03.581Z,-3.80
2019-01-23T02:40:10.455Z,-3.80
2019-01-23T02:45:14.611Z,-3.80
2019-01-23T02:50:18.416Z,-3.80
2019-01-23T02:55:22.170Z,-3.80
2019-01-23T03:00:26.005Z,-3.70
2019-01-23T03:05:29.690Z,-3.70
2019-01-23T03:10:33.440Z,-3.70
2019-01-23T03:15:37.114Z,-3.70
2019-01-23T03:20:40.780Z,-3.70
2019-01-23T03:25:44.454Z,-3.70
2019-01-23T03:30:48.142Z,-3.70
2019-01-23T03:35:51.879Z,-3.70
2019-01-23T03:40:55.688Z,-3.70
2019-01-23T03:45:59.380Z,-3.80
2019-01-23T03:51:03.054Z,-3.80
2019-01-23T03:56:06.799Z,-3.90
2019-01-23T04:01:10.491Z,-3.90
2019-01-23T04:06:14.171Z,-4.00
2019-01-23T04:11:17.837Z,-4.00
2019-01-23T04:16:21.513Z,-4.00
2019-01-23T04:21:25.524Z,-4.10
2019-01-23T04:26:29.208Z,-4.10
2019-01-23T04:31:32.877Z,-4.10
2019-01-23T04:36:36.566Z,-4.10
2019-01-23T04:41:40.238Z,-4.10
2019-01-23T04:46:43.912Z,-4.20
2019-01-23T04:51:59.211Z,-4.20
2019-01-23T04:57:02.890Z,-4.30
2019-01-23T05:02:06.580Z,-4.40
2019-01-23T05:07:10.258Z,-4.50
2019-01-23T05:12:13.937Z,-4.50
2019-01-23T05:17:17.607Z,-4.70
2019-01-23T05:22:21.306Z,-4.70
2019-01-23T05:27:24.973Z,-4.80
2019-01-23T05:32:28.660Z,-4.90
2019-01-23T05:37:32.391Z,-4.90
2019-01-23T05:42:36.140Z,-5.00
2019-01-23T05:47:39.820Z,-5.00
2019-01-23T05:52:43.538Z,-5.00
2019-01-23T05:57:47.514Z,-5.00
2019-01-23T06:02:51.450Z,-5.00
2019-01-23T06:07:55.194Z,-5.00
2019-01-23T06:12:59.160Z,-5.00
2019-01-23T06:18:02.840Z,-5.00
2019-01-23T06:23:06.564Z,-5.10
2019-01-23T06:28:10.298Z,-5.10
2019-01-23T06:33:14.024Z,-5.10
2019-01-23T06:38:17.707Z,-5.10
2019-01-23T06:43:21.701Z,-5.10
2019-01-23T06:48:25.445Z,-5.00
2019-01-23T06:53:29.163Z,-4.90
2019-01-23T06:58:32.891Z,-4.90
2019-01-23T07:03:36.596Z,-4.80
2019-01-23T07:08:40.295Z,-4.70
2019-01-23T07:13:44.032Z,-4.70
2019-01-23T07:18:47.729Z,-4.70
2019-01-23T07:23:51.509Z,-4.60
2019-01-23T07:28:55.456Z,-4.60
2019-01-23T07:33:59.167Z,-4.50
2019-01-23T07:39:04.534Z,-4.50
2019-01-23T07:44:08.656Z,-4.50
2019-01-23T07:49:12.332Z,-4.50
2019-01-23T07:54:16.005Z,-4.40
2019-01-23T07:59:19.680Z,-4.40
2019-01-23T08:04:23.402Z,-4.30
2019-01-23T08:09:27.095Z,-4.30
2019-01-23T08:14:30.771Z,-4.30
2019-01-23T08:19:34.440Z,-4.20
2019-01-23T08:24:38.112Z,-4.20
2019-01-23T08:29:41.861Z,-4.10
2019-01-23T08:34:45.540Z,-4.10
2019-01-23T08:39:49.220Z,-4.00
2019-01-23T08:44:52.888Z,-3.90
2019-01-23T08:49:56.573Z,-3.80
2019-01-23T08:55:00.256Z,-3.80
2019-01-23T09:00:04.957Z,-3.70
2019-01-23T09:05:09.198Z,-3.70
2019-01-23T09:10:15.972Z,-3.70
2019-01-23T09:15:19.737Z,-3.70
2019-01-23T09:20:23.775Z,-3.60
2019-01-23T09:25:27.823Z,-3.60
2019-01-23T09:30:44.105Z,-3.50
2019-01-23T09:36:16.736Z,-3.50
2019-01-23T09:41:41.724Z,-3.50
2019-01-23T09:47:16.770Z,-3.50
2019-01-23T09:52:48.572Z,-3.50
2019-01-23T09:57:55.643Z,-3.40
2019-01-23T10:02:59.406Z,-3.40
2019-01-23T10:08:03.086Z,-3.30
2019-01-23T10:13:06.849Z,-3.20
2019-01-23T10:18:10.534Z,-3.10
2019-01-23T10:23:14.213Z,-3.00
2019-01-23T10:28:18.002Z,-2.90
2019-01-23T10:33:21.706Z,-2.90
2019-01-23T10:38:25.380Z,-2.90
2019-01-23T10:43:29.086Z,-2.80
2019-01-23T10:48:37.974Z,-2.70
2019-01-23T10:53:38.185Z,-2.70
2019-01-23T10:58:41.877Z,-2.70
2019-01-23T11:03:45.562Z,-2.60
2019-01-23T11:08:49.267Z,-2.60
2019-01-23T11:13:52.941Z,-2.70
2019-01-23T11:18:56.637Z,-2.60
2019-01-23T11:24:00.407Z,-2.60
2019-01-23T11:29:04.314Z,-2.50
2019-01-23T11:34:08.070Z,-2.50
2019-01-23T11:39:11.753Z,-2.40
2019-01-23T11:44:15.494Z,-2.30
2019-01-23T11:49:19.163Z,-2.40
2019-01-23T11:54:22.851Z,-2.50
2019-01-23T11:59:26.541Z,-2.60
2019-01-23T12:04:30.270Z,-2.60
2019-01-23T12:09:33.944Z,-2.60
2019-01-23T12:14:37.619Z,-2.60
2019-01-23T12:19:41.709Z,-2.70
2019-01-23T12:24:45.447Z,-2.70
2019-01-23T12:29:49.141Z,-2.70
2019-01-23T12:34:52.805Z,-2.80
2019-01-23T12:39:56.490Z,-2.80
2019-01-23T12:45:00.524Z,-2.80
2019-01-23T12:50:05.384Z,-2.90
2019-01-23T12:55:09.572Z,-2.90
2019-01-23T13:00:16.844Z,-3.00
2019-01-23T13:05:21.128Z,-3.00
2019-01-23T13:10:25.415Z,-3.00
2019-01-23T13:15:29.253Z,-3.00
2019-01-23T13:20:32.992Z,-3.00
2019-01-23T13:25:36.670Z,-2.90
2019-01-23T13:30:40.407Z,-3.00
2019-01-23T13:35:44.099Z,-3.00
2019-01-23T13:40:47.781Z,-3.00
2019-01-23T13:45:51.456Z,-3.00
2019-01-23T13:50:55.115Z,-3.00
2019-01-23T13:55:59.064Z,-3.10
2019-01-23T14:01:02.784Z,-3.20
2019-01-23T14:06:06.922Z,-3.20
2019-01-23T14:11:10.628Z,-3.20
2019-01-23T14:16:14.469Z,-3.20
2019-01-23T14:21:18.185Z,-3.20
2019-01-23T14:26:21.927Z,-3.20
2019-01-23T14:31:25.626Z,-3.20
2019-01-23T14:36:29.326Z,-3.20
2019-01-23T14:41:33.272Z,-3.30
2019-01-23T14:46:36.984Z,-3.30
2019-01-23T14:51:40.657Z,-3.30
2019-01-23T14:56:44.322Z,-3.20
2019-01-23T15:01:48.060Z,-3.30
2019-01-23T15:06:51.746Z,-3.20
2019-01-23T15:11:55.424Z,-3.20
2019-01-23T15:16:59.180Z,-3.20
2019-01-23T15:22:02.977Z,-3.20
2019-01-23T15:27:06.684Z,-3.10
2019-01-23T15:32:16.851Z,-3.10
2019-01-23T15:37:15.997Z,-3.20
2019-01-23T15:42:19.694Z,-3.20
2019-01-23T15:47:23.420Z,-3.10
2019-01-23T15:52:27.176Z,-3.10
2019-01-23T15:57:31.052Z,-3.10
2019-01-23T16:02:35.034Z,-3.10
2019-01-23T16:07:38.956Z,-3.10
2019-01-23T16:12:42.853Z,-3.10
2019-01-23T16:17:47.331Z,-3.10
2019-01-23T16:22:51.679Z,-3.10
2019-01-23T16:27:55.532Z,-3.10
2019-01-23T16:32:59.279Z,-3.10
2019-01-23T16:38:03.337Z,-3.10
2019-01-23T16:43:07.380Z,-3.10
2019-01-23T16:48:11.396Z,-3.10
2019-01-23T16:53:15.314Z,-3.10
2019-01-23T16:58:19.177Z,-3.10
2019-01-23T17:03:23.129Z,-3.10
2019-01-23T17:08:27.151Z,-3.10
2019-01-23T17:13:30.821Z,-3.10
2019-01-23T17:18:34.579Z,-3.10
2019-01-23T17:23:39.649Z,-3.10
2019-01-23T17:28:43.343Z,-3.10
2019-01-23T17:33:47.505Z,-3.00
2019-01-23T17:38:52.350Z,-3.00
2019-01-23T17:43:57.309Z,-3.00
2019-01-23T17:49:01.709Z,-3.00
2019-01-23T17:54:05.722Z,-2.90
2019-01-23T17:59:09.397Z,-2.90
2019-01-23T18:04:15.725Z,-2.90
2019-01-23T18:09:23.370Z,-2.90
2019-01-23T18:14:27.417Z,-2.80
2019-01-23T18:19:31.429Z,-2.80
2019-01-23T18:24:35.125Z,-2.80
2019-01-23T18:29:38.916Z,-2.80
2019-01-23T18:35:33.057Z,-2.80
2019-01-23T18:41:14.841Z,-2.80
2019-01-23T18:46:32.731Z,-2.80
2019-01-23T18:52:01.933Z,-2.80
2019-01-23T18:57:07.023Z,-2.80
2019-01-23T19:02:12.397Z,-2.80
2019-01-23T19:07:16.130Z,-2.70
2019-01-23T19:12:19.881Z,-2.70
2019-01-23T19:17:23.957Z,-2.70
2019-01-23T19:22:28.925Z,-2.70
2019-01-23T19:27:32.656Z,-2.70
2019-01-23T19:32:36.504Z,-2.70
2019-01-23T19:37:40.255Z,-2.70
2019-01-23T19:42:48.010Z,-2.70
2019-01-23T19:47:51.991Z,-2.70
2019-01-23T19:52:56.116Z,-2.60
2019-01-23T19:57:59.894Z,-2.60
2019-01-23T20:03:03.725Z,-2.60
2019-01-23T20:08:08.011Z,-2.60
2019-01-23T20:13:12.178Z,-2.70
2019-01-23T20:18:16.313Z,-2.60
2019-01-23T20:23:20.137Z,-2.60
2019-01-23T20:28:23.824Z,-2.60
2019-01-23T20:33:28.293Z,-2.60
2019-01-23T20:38:32.256Z,-2.60
2019-01-23T20:43:35.944Z,-2.60
2019-01-23T20:48:39.770Z,-2.60
2019-01-23T20:53:43.489Z,-2.60
2019-01-23T20:58:47.165Z,-2.50
2019-01-23T21:03:50.979Z,-2.50
2019-01-23T21:08:54.671Z,-2.50
2019-01-23T21:13:58.349Z,-2.50
2019-01-23T21:19:02.095Z,-2.50
2019-01-23T21:24:05.977Z,-2.40
2019-01-23T21:29:10.034Z,-2.40
2019-01-23T21:34:13.729Z,-2.40
2019-01-23T21:39:17.528Z,-2.40
2019-01-23T21:44:21.228Z,-2.40
2019-01-23T21:49:25.084Z,-2.40
2019-01-23T21:54:29.679Z,-2.30
2019-01-23T21:59:33.614Z,-2.30
2019-01-23T22:04:37.403Z,-2.30
2019-01-23T22:09:41.350Z,-2.30
2019-01-23T22:14:45.086Z,-2.30
2019-01-23T22:19:48.811Z,-2.20
2019-01-23T22:24:52.638Z,-2.20
2019-01-23T22:29:57.054Z,-2.20
2019-01-23T22:35:01.081Z,-2.20
2019-01-23T22:40:06.410Z,-2.20
2019-01-23T22:45:12.792Z,-2.10
2019-01-23T22:50:18.679Z,-2.10
2019-01-23T22:55:22.599Z,-2.10
2019-01-23T23:00:37.310Z,-2.10
2019-01-23T23:05:40.992Z,-2.10
2019-01-23T23:10:44.677Z,-2.10
2019-01-23T23:15:48.614Z,-2.10
2019-01-23T23:20:52.289Z,-2.10
2019-01-23T23:25:55.974Z,-2.10
2019-01-23T23:30:59.761Z,-2.10
2019-01-23T23:36:04.183Z,-2.10
2019-01-23T23:41:07.885Z,-2.10
2019-01-23T23:46:11.567Z,-2.10
2019-01-23T23:51:15.239Z,-2.00
2019-01-23T23:56:19.074Z,-2.00
